Time;durP1;ratioP1;P1;durP2;ratioP2;P2;SDS_P1;SDS_P2;PMS_P1;PMS_P2;Temp;Humidity;BMP_temperature;BMP_pressure;BME280_temperature;BME280_humidity;BME280_pressure;Samples;Min_cycle;Max_cycle;Signal;HPM_P1;HPM_P2
2024/02/19 08:02:40;;;;;;;23.90;15.90;;;;;;;4.23;75.86;97545.14;101921;1292;639870;-77
2024/02/19 08:05:08;;;;;;;25.70;16.10;;;;;;;4.28;75.22;97541.02;104212;1263;114426;-77
2024/02/19 08:07:36;;;;;;;22.50;15.70;;;;;;;4.25;75.29;97538.88;104528;1267;95916;-77
2024/02/19 08:10:06;;;;;;;23.60;16.10;;;;;;;4.23;75.45;97538.05;104653;1266;100327;-77
2024/02/19 08:12:34;;;;;;;27.40;16.70;;;;;;;4.20;75.46;97540.00;104387;1269;100340;-77
2024/02/19 08:15:04;;;;;;;22.90;15.90;;;;;;;4.19;75.40;97541.38;104217;1279;100102;-77
2024/02/19 08:17:32;;;;;;;31.50;17.50;;;;;;;4.19;75.40;97538.34;104224;1268;95861;-77
2024/02/19 08:20:00;;;;;;;28.70;15.80;;;;;;;4.19;75.42;97537.43;104267;1267;95907;-77
2024/02/19 08:22:27;;;;;;;26.20;17.50;;;;;;;4.21;75.52;97536.70;104289;1268;98546;-77
2024/02/19 08:24:55;;;;;;;26.10;17.30;;;;;;;4.25;75.43;97533.87;104416;1263;101811;-77
2024/02/19 08:27:23;;;;;;;27.00;16.10;;;;;;;4.29;75.20;97530.44;104367;1267;98890;-77
2024/02/19 08:29:50;;;;;;;28.50;17.80;;;;;;;4.32;75.15;97528.23;104273;1268;96136;-77
2024/02/19 08:32:18;;;;;;;29.70;18.20;;;;;;;4.37;75.13;97525.23;104324;1268;96798;-77
2024/02/19 08:34:46;;;;;;;27.80;17.90;;;;;;;4.42;75.11;97520.26;104303;1268;99715;-77
2024/02/19 08:37:17;;;;;;;26.40;17.00;;;;;;;4.46;75.08;97518.91;104236;1263;100322;-77
2024/02/19 08:39:45;;;;;;;22.30;15.20;;;;;;;4.51;74.88;97520.06;104254;1269;101578;-77
2024/02/19 08:42:13;;;;;;;24.80;14.90;;;;;;;4.57;74.81;97521.60;104227;1269;95882;-77
2024/02/19 08:44:41;;;;;;;26.50;16.00;;;;;;;4.62;74.67;97519.14;104222;1269;96291;-77
2024/02/19 08:47:09;;;;;;;23.00;15.50;;;;;;;4.66;74.59;97521.91;104639;1263;99929;-77
2024/02/19 08:49:37;;;;;;;21.50;15.60;;;;;;;4.70;74.65;97522.06;104653;1272;102219;-77
2024/02/19 08:52:05;;;;;;;22.50;15.40;;;;;;;4.74;74.68;97522.14;104784;1256;98883;-77
2024/02/19 08:54:33;;;;;;;24.50;16.10;;;;;;;4.78;74.41;97519.42;104877;1262;96635;-77
2024/02/19 08:57:01;;;;;;;22.80;15.60;;;;;;;4.82;74.40;97519.03;104709;1259;95825;-77
2024/02/19 08:59:28;;;;;;;22.50;15.90;;;;;;;4.85;74.40;97518.23;104638;1260;99371;-77
2024/02/19 09:01:57;;;;;;;23.90;15.70;;;;;;;4.90;74.23;97516.91;104629;1262;100392;-77
2024/02/19 09:04:25;;;;;;;25.50;15.90;;;;;;;4.96;74.45;97514.13;104931;1256;98634;-77
2024/02/19 09:06:53;;;;;;;23.20;15.40;;;;;;;5.00;74.39;97512.45;104980;1262;95990;-77
2024/02/19 09:09:20;;;;;;;22.50;15.90;;;;;;;5.04;74.19;97510.88;104943;1278;96914;-77
2024/02/19 09:11:48;;;;;;;21.30;15.40;;;;;;;5.11;74.16;97514.39;104833;1263;99642;-77
2024/02/19 09:14:16;;;;;;;23.50;15.60;;;;;;;5.18;74.18;97514.65;104874;1260;100570;-77
2024/02/19 09:16:43;;;;;;;27.10;16.80;;;;;;;5.26;74.05;97514.31;104698;1262;98828;-77
2024/02/19 09:19:11;;;;;;;32.10;18.00;;;;;;;5.32;73.79;97511.02;104810;1262;96191;-77
2024/02/19 09:21:39;;;;;;;30.10;17.90;;;;;;;5.39;73.81;97505.06;105020;1254;97361;-77
2024/02/19 09:24:07;;;;;;;22.70;15.80;;;;;;;5.48;73.78;97504.23;105144;1257;99967;-77
2024/02/19 09:26:35;;;;;;;35.90;19.80;;;;;;;5.56;73.62;97501.52;104997;1253;99871;-76
2024/02/19 09:29:03;;;;;;;38.90;20.40;;;;;;;5.63;73.42;97498.35;105245;1259;99205;-76
2024/02/19 09:31:31;;;;;;;31.00;17.30;;;;;;;5.71;73.30;97495.48;105078;1266;95986;-77
2024/02/19 09:34:00;;;;;;;30.10;17.10;;;;;;;5.80;73.10;97497.98;104967;1259;96642;-77
2024/02/19 09:36:28;;;;;;;29.00;17.00;;;;;;;5.90;72.84;97495.63;104982;1253;99885;-77
2024/02/19 09:38:55;;;;;;;27.80;17.10;;;;;;;5.98;72.27;97493.73;104978;1256;110174;-77
2024/02/19 09:41:23;;;;;;;27.30;17.80;;;;;;;6.05;72.14;97493.46;104971;1271;100289;-77
2024/02/19 09:43:51;;;;;;;30.00;17.70;;;;;;;6.12;71.97;97491.50;104959;1256;96606;-78
2024/02/19 09:46:22;;;;;;;28.30;18.10;;;;;;;6.22;72.10;97488.77;105074;1257;95778;-79
2024/02/19 09:48:51;;;;;;;32.10;18.60;;;;;;;6.32;72.27;97479.31;105050;1256;100544;-76
2024/02/19 09:51:26;;;;;;;29.40;17.80;;;;;;;6.44;71.85;97477.38;105026;1256;102192;-77
2024/02/19 09:53:54;;;;;;;24.80;17.40;;;;;;;6.56;71.81;97477.56;105006;1253;98868;-78
2024/02/19 09:56:26;;;;;;;24.70;15.80;;;;;;;6.66;71.57;97477.67;105104;1256;97677;-78
2024/02/19 09:58:56;;;;;;;21.70;16.10;;;;;;;6.72;70.52;97480.70;105078;1258;96682;-77
2024/02/19 10:01:24;;;;;;;25.50;15.80;;;;;;;6.72;69.67;97481.30;105080;1256;99870;-77
2024/02/19 10:03:52;;;;;;;24.70;15.90;;;;;;;6.71;69.99;97473.89;105015;1256;102471;-78
2024/02/19 10:06:20;;;;;;;23.00;16.40;;;;;;;6.72;70.23;97477.98;105180;1253;98951;-76
2024/02/19 10:08:47;;;;;;;24.40;16.90;;;;;;;6.72;69.45;97477.48;104941;1257;95840;-80
2024/02/19 10:11:16;;;;;;;25.50;17.10;;;;;;;6.70;69.61;97473.48;105012;1256;95828;-78
2024/02/19 10:13:45;;;;;;;24.30;17.20;;;;;;;6.68;68.84;97469.77;105044;1256;101139;-77
2024/02/19 10:16:12;;;;;;;21.80;15.30;;;;;;;6.67;69.07;97461.70;105081;1261;100450;-79
2024/02/19 10:18:41;;;;;;;22.80;15.40;;;;;;;6.69;69.50;97457.15;105321;1252;100578;-78
2024/02/19 10:21:10;;;;;;;24.00;15.70;;;;;;;6.74;69.50;97452.91;105156;1256;96749;-77
2024/02/19 10:23:39;;;;;;;20.80;15.00;;;;;;;6.81;69.36;97455.09;105290;1256;95832;-79
2024/02/19 10:26:08;;;;;;;20.60;14.70;;;;;;;6.87;69.38;97451.75;105285;1254;101535;-80
2024/02/19 10:28:36;;;;;;;20.30;14.30;;;;;;;6.93;69.26;97449.02;105347;1256;102431;-77
2024/02/19 10:31:04;;;;;;;20.00;13.90;;;;;;;6.99;69.25;97449.58;105219;1256;99358;-77
2024/02/19 10:33:35;;;;;;;21.00;14.80;;;;;;;7.03;69.22;97450.29;105113;1256;95797;-77
2024/02/19 10:36:05;;;;;;;19.00;13.60;;;;;;;7.06;69.02;97450.08;104964;1259;95988;-77
2024/02/19 10:38:32;;;;;;;20.10;14.60;;;;;;;7.06;68.81;97447.06;105205;1256;99835;-77
2024/02/19 10:41:00;;;;;;;16.40;12.50;;;;;;;7.06;68.87;97441.02;105263;1256;100370;-77
2024/02/19 10:43:28;;;;;;;18.10;13.20;;;;;;;7.07;69.00;97440.02;105120;1275;100727;-77
2024/02/19 10:45:58;;;;;;;21.40;13.40;;;;;;;7.08;68.99;97442.35;105148;1256;95887;-77
2024/02/19 10:48:27;;;;;;;17.90;12.60;;;;;;;7.12;69.06;97436.48;105079;1256;95923;-77
2024/02/19 10:50:54;;;;;;;19.00;12.80;;;;;;;7.16;68.92;97432.02;105219;1256;99878;-77
2024/02/19 10:53:27;;;;;;;24.60;14.40;;;;;;;7.19;68.92;97430.01;105089;1256;100155;-77
2024/02/19 10:56:15;;;;;;;18.10;12.90;;;;;;;7.20;68.44;97432.95;104999;1256;100442;-77
2024/02/19 10:58:55;;;;;;;16.60;11.90;;;;;;;7.20;68.22;97431.21;105120;1266;95983;-77
2024/02/19 11:01:24;;;;;;;15.90;12.40;;;;;;;7.19;68.41;97428.39;105170;1256;95923;-77
2024/02/19 11:03:52;;;;;;;18.20;13.00;;;;;;;7.22;68.75;97427.52;105034;1257;99809;-77
2024/02/19 11:06:23;;;;;;;17.90;11.50;;;;;;;7.26;68.76;97425.20;105224;1253;102175;-77
2024/02/19 11:08:55;;;;;;;16.90;11.00;;;;;;;7.32;68.52;97423.83;105076;1255;100729;-77
2024/02/19 11:11:24;;;;;;;15.00;11.30;;;;;;;7.37;68.60;97421.92;105085;1267;96302;-77
2024/02/19 11:13:51;;;;;;;14.20;10.90;;;;;;;7.42;68.70;97419.59;105236;1257;96776;-77
2024/02/19 11:16:20;;;;;;;13.70;9.70;;;;;;;7.50;68.43;97413.66;105277;1256;99716;-77
2024/02/19 11:18:48;;;;;;;10.70;8.50;;;;;;;7.63;68.00;97410.41;105208;1256;100088;-77
2024/02/19 11:21:19;;;;;;;9.60;8.10;;;;;;;7.89;68.34;97408.48;105317;1266;100673;-78
2024/02/19 11:23:47;;;;;;;9.80;8.10;;;;;;;8.08;67.76;97394.27;105141;1259;97183;-77
2024/02/19 11:26:14;;;;;;;10.90;7.50;;;;;;;8.17;67.92;97389.27;105158;1256;96223;-77
2024/02/19 11:28:43;;;;;;;11.10;7.80;;;;;;;8.21;67.54;97383.70;105139;1260;101457;-77
2024/02/19 11:31:14;;;;;;;12.20;7.50;;;;;;;8.23;67.15;97382.41;105233;1260;100267;-77
2024/02/19 11:33:42;;;;;;;11.70;7.20;;;;;;;8.23;67.22;97368.07;105232;1267;100683;-78
2024/02/19 11:36:09;;;;;;;10.10;6.70;;;;;;;8.27;66.89;97365.25;105170;1267;96693;-78
2024/02/19 11:38:38;;;;;;;7.90;6.30;;;;;;;8.33;67.13;97358.77;105300;1259;95834;-78
2024/02/19 11:41:09;;;;;;;12.50;6.80;;;;;;;8.45;66.90;97360.98;105301;1257;99343;-78
2024/02/19 11:43:38;;;;;;;8.80;6.60;;;;;;;8.57;66.41;97360.85;105373;1256;100396;-77
2024/02/19 11:46:07;;;;;;;16.70;8.40;;;;;;;8.73;66.21;97355.13;105084;1256;99287;-78
2024/02/19 11:48:35;;;;;;;10.50;6.50;;;;;;;8.91;65.82;97347.70;105027;1256;95903;-78
2024/02/19 11:51:05;;;;;;;9.60;6.00;;;;;;;9.11;65.32;97338.44;105069;1266;96936;-77
2024/02/19 11:53:33;;;;;;;7.70;5.40;;;;;;;9.27;65.19;97328.56;104969;1256;100793;-78
2024/02/19 11:56:02;;;;;;;8.90;5.90;;;;;;;9.38;64.06;97323.06;104939;1271;100084;-78
2024/02/19 11:58:30;;;;;;;10.00;6.90;;;;;;;9.54;64.73;97317.55;105217;1258;98599;-78
2024/02/19 12:01:00;;;;;;;10.90;6.70;;;;;;;9.85;64.18;97320.50;105190;1256;97030;-78
2024/02/19 12:03:28;;;;;;;7.10;5.60;;;;;;;10.13;63.89;97318.52;105233;1256;95832;-77
2024/02/19 12:05:58;;;;;;;6.50;4.90;;;;;;;10.31;62.88;97321.37;105188;1258;101568;-78
2024/02/19 12:08:29;;;;;;;8.50;5.50;;;;;;;10.49;61.95;97317.50;105037;1256;101899;-78
2024/02/19 12:10:58;;;;;;;8.80;6.10;;;;;;;10.75;62.48;97318.38;105094;1263;98923;-79
2024/02/19 12:13:26;;;;;;;7.90;4.90;;;;;;;11.05;61.78;97320.30;105125;1256;96585;-82
2024/02/19 12:15:54;;;;;;;9.60;6.20;;;;;;;11.17;59.56;97322.90;105117;1257;96979;-78
2024/02/19 12:18:21;;;;;;;7.10;5.50;;;;;;;11.07;58.83;97323.71;105093;1256;103040;-78
2024/02/19 12:20:49;;;;;;;7.00;4.90;;;;;;;10.91;58.74;97316.39;105085;1256;102217;-80
2024/02/19 12:23:17;;;;;;;6.70;5.40;;;;;;;10.78;58.48;97315.55;104890;1257;100557;-78
2024/02/19 12:25:45;;;;;;;8.50;5.10;;;;;;;10.70;59.55;97307.49;104984;1263;96815;-79
2024/02/19 12:28:13;;;;;;;7.70;4.60;;;;;;;10.62;59.12;97296.23;104987;1256;98389;-77
2024/02/19 12:30:40;;;;;;;6.40;4.40;;;;;;;10.47;59.95;97296.07;105126;1257;101305;-79
2024/02/19 12:33:10;;;;;;;5.80;4.20;;;;;;;10.37;60.29;97306.11;104970;1259;102279;-78
2024/02/19 12:35:38;;;;;;;5.30;4.20;;;;;;;10.27;60.44;97313.07;104947;1266;98406;-77
2024/02/19 12:38:06;;;;;;;5.10;4.10;;;;;;;10.17;60.41;97311.61;104945;1260;96580;-78
2024/02/19 12:40:33;;;;;;;6.30;4.20;;;;;;;10.06;59.79;97308.23;105104;1257;96536;-78
2024/02/19 12:43:02;;;;;;;4.80;3.60;;;;;;;9.97;60.09;97305.89;105023;1256;101328;-78
2024/02/19 12:45:30;;;;;;;4.00;3.20;;;;;;;9.89;59.92;97306.36;105088;1266;100023;-77
2024/02/19 12:47:57;;;;;;;6.00;4.20;;;;;;;9.75;59.96;97318.48;104962;1266;100688;-77
2024/02/19 12:50:27;;;;;;;4.90;3.90;;;;;;;9.63;60.66;97316.41;105016;1256;97758;-78
2024/02/19 12:52:55;;;;;;;4.10;3.60;;;;;;;9.60;60.82;97314.75;104961;1256;97369;-79
2024/02/19 12:55:23;;;;;;;4.90;3.60;;;;;;;9.53;60.84;97316.95;104961;1260;102945;-77
2024/02/19 12:57:50;;;;;;;6.80;5.20;;;;;;;9.41;60.92;97315.16;105095;1267;100213;-77
2024/02/19 13:00:18;;;;;;;6.40;4.50;;;;;;;9.32;60.86;97323.02;104952;1267;100764;-78
2024/02/19 13:02:46;;;;;;;6.50;4.40;;;;;;;9.22;61.06;97326.14;105055;1266;96786;-77
2024/02/19 13:05:14;;;;;;;5.10;3.90;;;;;;;9.13;61.56;97323.31;105000;1267;97004;-77
2024/02/19 13:07:42;;;;;;;8.30;5.30;;;;;;;9.02;61.76;97326.69;105001;1256;102908;-77
2024/02/19 13:10:10;;;;;;;6.10;4.40;;;;;;;8.94;62.13;97320.16;104888;1257;102329;-77
2024/02/19 13:12:38;;;;;;;5.30;3.90;;;;;;;8.87;62.31;97318.33;104976;1256;99892;-78
2024/02/19 13:15:07;;;;;;;7.00;5.50;;;;;;;8.79;62.43;97315.36;105132;1253;97139;-77
2024/02/19 13:17:35;;;;;;;6.00;4.20;;;;;;;8.74;62.76;97318.40;104972;1259;96817;-77
2024/02/19 13:20:04;;;;;;;6.90;4.90;;;;;;;8.70;62.94;97323.77;105008;1256;101225;-77
2024/02/19 13:22:32;;;;;;;8.90;6.30;;;;;;;8.60;63.02;97317.73;105013;1257;100082;-77
2024/02/19 13:24:59;;;;;;;6.90;5.70;;;;;;;8.51;63.29;97315.88;105062;1259;99353;-78
2024/02/19 13:27:27;;;;;;;6.50;4.60;;;;;;;8.47;63.63;97319.98;104910;1266;96753;-77
2024/02/19 13:29:55;;;;;;;7.00;5.20;;;;;;;8.46;63.76;97319.65;104965;1266;98370;-77
2024/02/19 13:32:23;;;;;;;6.80;4.30;;;;;;;8.44;63.92;97320.08;104947;1260;102925;-77
2024/02/19 13:34:50;;;;;;;8.20;4.90;;;;;;;8.42;64.03;97316.21;104934;1271;102305;-77
2024/02/19 13:37:18;;;;;;;5.80;4.40;;;;;;;8.40;64.13;97317.56;105044;1275;100560;-77
2024/02/19 13:39:46;;;;;;;4.90;3.90;;;;;;;8.39;64.20;97316.85;104951;1256;96533;-77
2024/02/19 13:42:14;;;;;;;6.10;4.40;;;;;;;8.37;64.26;97315.05;104948;1257;97067;-77
2024/02/19 13:44:42;;;;;;;7.50;4.90;;;;;;;8.34;64.35;97315.54;104962;1257;102615;-81
2024/02/19 13:47:11;;;;;;;5.70;4.20;;;;;;;8.29;64.47;97319.23;105022;1254;102179;-77
2024/02/19 13:49:39;;;;;;;7.70;5.50;;;;;;;8.23;64.52;97314.13;104907;1267;107557;-79
2024/02/19 13:52:07;;;;;;;6.50;4.70;;;;;;;8.20;64.72;97308.67;105001;1257;96626;-77
2024/02/19 13:54:35;;;;;;;5.40;4.30;;;;;;;8.17;64.91;97308.15;105133;1254;97064;-78
2024/02/19 13:57:03;;;;;;;4.80;4.10;;;;;;;8.12;64.94;97306.16;104979;1266;102920;-77
2024/02/19 13:59:31;;;;;;;11.00;5.60;;;;;;;8.11;65.06;97311.07;104928;1266;100337;-77
2024/02/19 14:01:59;;;;;;;12.00;6.00;;;;;;;8.09;65.28;97313.92;104954;1258;99890;-77
2024/02/19 14:04:27;;;;;;;9.70;6.30;;;;;;;8.07;65.31;97314.55;105124;1258;97018;-77
2024/02/19 14:06:56;;;;;;;12.30;7.00;;;;;;;8.07;65.52;97313.69;104966;1265;97332;-77
2024/02/19 14:09:24;;;;;;;13.00;7.50;;;;;;;8.08;65.54;97314.73;104989;1269;110169;-77
2024/02/19 14:11:51;;;;;;;19.00;9.90;;;;;;;8.06;65.68;97313.13;104971;1258;102150;-77
2024/02/19 14:14:19;;;;;;;19.10;9.30;;;;;;;8.05;65.90;97314.12;105030;1266;100952;-77
2024/02/19 14:16:47;;;;;;;17.40;9.20;;;;;;;8.06;66.11;97314.13;104938;1266;96750;-77
2024/02/19 14:19:14;;;;;;;14.50;8.40;;;;;;;8.04;66.56;97318.58;105014;1257;96546;-77
2024/02/19 14:21:42;;;;;;;9.60;6.10;;;;;;;8.01;66.82;97317.55;104923;1259;102669;-78
2024/02/19 14:24:10;;;;;;;11.80;6.70;;;;;;;7.98;67.13;97322.61;105154;1260;102215;-78
2024/02/19 14:26:38;;;;;;;10.30;6.20;;;;;;;7.96;67.21;97323.41;105073;1267;100831;-77
2024/02/19 14:29:09;;;;;;;14.10;7.90;;;;;;;7.95;67.41;97325.35;105251;1260;96617;-76
2024/02/19 14:31:36;;;;;;;9.80;7.00;;;;;;;7.93;67.61;97320.20;105200;1256;97158;-76
2024/02/19 14:34:06;;;;;;;11.20;6.60;;;;;;;7.91;67.62;97320.23;105090;1257;100853;-76
2024/02/19 14:36:35;;;;;;;9.30;6.10;;;;;;;7.89;67.84;97321.94;105062;1267;101821;-76
2024/02/19 14:39:09;;;;;;;10.40;6.80;;;;;;;7.84;68.25;97329.55;105103;1258;98609;-76
2024/02/19 14:41:37;;;;;;;11.80;7.10;;;;;;;7.79;68.69;97338.66;105075;1260;97245;-79
2024/02/19 14:44:05;;;;;;;7.60;5.60;;;;;;;7.74;68.79;97340.20;104916;1258;97074;-80
2024/02/19 14:46:33;;;;;;;6.30;4.40;;;;;;;7.70;69.01;97346.83;104937;1266;101117;-78
2024/02/19 14:49:00;;;;;;;4.40;3.70;;;;;;;7.64;69.34;97350.45;104912;1266;101702;-77
2024/02/19 14:51:28;;;;;;;10.60;6.20;;;;;;;7.59;69.47;97350.71;104990;1266;101180;-78
2024/02/19 14:53:56;;;;;;;9.70;5.70;;;;;;;7.55;69.53;97349.56;105162;1265;97496;-77
2024/02/19 14:56:23;;;;;;;7.70;5.50;;;;;;;7.50;69.68;97348.21;105126;1256;98427;-76
2024/02/19 14:58:51;;;;;;;11.10;6.20;;;;;;;7.47;70.34;97341.80;105265;1254;101083;-76
2024/02/19 15:01:19;;;;;;;13.10;7.00;;;;;;;7.40;70.63;97348.83;105158;1266;102287;-76
2024/02/19 15:03:46;;;;;;;7.70;5.00;;;;;;;7.34;70.60;97347.59;105234;1257;100793;-79
2024/02/19 15:06:14;;;;;;;8.10;5.10;;;;;;;7.31;70.52;97344.75;105229;1267;96543;-76
2024/02/19 15:08:43;;;;;;;8.30;5.40;;;;;;;7.31;70.49;97345.62;105198;1257;98151;-77
2024/02/19 15:11:11;;;;;;;13.30;7.70;;;;;;;7.33;70.55;97346.34;104978;1257;103133;-76
2024/02/19 15:13:39;;;;;;;13.30;7.70;;;;;;;7.33;70.85;97350.77;104985;1267;102142;-76
2024/02/19 15:16:07;;;;;;;9.90;6.60;;;;;;;7.31;70.97;97349.29;104964;1256;99229;-75
2024/02/19 15:18:34;;;;;;;9.70;7.40;;;;;;;7.27;71.14;97349.28;105071;1267;96783;-76
2024/02/19 15:21:03;;;;;;;9.90;6.40;;;;;;;7.23;71.11;97349.02;104924;1267;97183;-79
2024/02/19 15:23:30;;;;;;;8.30;4.60;;;;;;;7.22;71.46;97347.39;105099;1269;100842;-75
2024/02/19 15:25:58;;;;;;;6.80;4.40;;;;;;;7.16;71.75;97351.86;105249;1254;102113;-78
2024/02/19 15:28:26;;;;;;;7.60;5.40;;;;;;;7.10;72.07;97349.28;105056;1258;98529;-79
2024/02/19 15:30:54;;;;;;;9.10;5.50;;;;;;;7.05;72.31;97351.99;105091;1257;96661;-77
2024/02/19 15:33:21;;;;;;;9.30;6.20;;;;;;;7.01;72.55;97350.55;105177;1257;97848;-79
2024/02/19 15:35:51;;;;;;;8.50;5.30;;;;;;;6.98;72.57;97354.83;105114;1256;104081;-77
2024/02/19 15:38:20;;;;;;;10.00;6.90;;;;;;;6.97;72.43;97353.53;105159;1267;100102;-76
2024/02/19 15:40:47;;;;;;;9.70;5.90;;;;;;;6.97;72.43;97359.10;104996;1266;101393;-78
2024/02/19 15:43:15;;;;;;;7.90;5.50;;;;;;;6.97;72.78;97360.22;104974;1267;96479;-77
2024/02/19 15:45:43;;;;;;;10.00;6.20;;;;;;;6.94;72.78;97357.02;105016;1275;97773;-79
2024/02/19 15:48:12;;;;;;;9.10;6.30;;;;;;;6.93;72.76;97361.02;105172;1267;101325;-76
2024/02/19 15:50:40;;;;;;;7.40;5.80;;;;;;;6.92;72.85;97366.88;105073;1257;102116;-79
2024/02/19 15:53:14;;;;;;;10.10;6.50;;;;;;;6.90;73.15;97372.09;104983;1259;101245;-76
2024/02/19 15:55:41;;;;;;;12.40;7.60;;;;;;;6.87;73.19;97375.88;105134;1260;96631;-79
2024/02/19 15:58:09;;;;;;;14.10;8.00;;;;;;;6.84;73.18;97379.77;104989;1266;98222;-79
2024/02/19 16:00:40;;;;;;;21.40;11.60;;;;;;;6.83;73.14;97386.52;104948;1257;101304;-79
2024/02/19 16:03:08;;;;;;;21.70;12.20;;;;;;;6.85;73.18;97387.70;105021;1258;100424;-80
2024/02/19 16:05:36;;;;;;;15.00;8.80;;;;;;;6.84;73.33;97391.94;105251;1257;100623;-76
2024/02/19 16:08:44;;;;;;;13.70;8.00;;;;;;;6.81;73.38;97391.07;104956;1254;96591;-76
2024/02/19 16:11:12;;;;;;;14.60;8.80;;;;;;;6.78;73.69;97398.95;105092;1258;97167;-76
2024/02/19 16:13:41;;;;;;;11.10;7.30;;;;;;;6.76;73.76;97403.02;105090;1260;102744;-77
2024/02/19 16:16:10;;;;;;;11.90;7.30;;;;;;;6.74;73.61;97405.48;105283;1257;100386;-76
2024/02/19 16:18:38;;;;;;;13.90;8.00;;;;;;;6.75;73.69;97409.67;104922;1259;98517;-76
2024/02/19 16:21:06;;;;;;;13.60;8.30;;;;;;;6.76;73.71;97414.09;104916;1255;96608;-76
2024/02/19 16:23:35;;;;;;;10.90;7.70;;;;;;;6.74;74.01;97420.18;104957;1257;97061;-76
2024/02/19 16:26:05;;;;;;;22.40;13.90;;;;;;;6.72;73.90;97419.54;105045;1256;102890;-76
2024/02/19 16:28:33;;;;;;;13.70;8.80;;;;;;;6.69;73.84;97417.39;104994;1257;102262;-76
2024/02/19 16:31:03;;;;;;;18.50;12.60;;;;;;;6.69;73.80;97421.25;105000;1256;98927;-76
2024/02/19 16:33:30;;;;;;;18.70;13.30;;;;;;;6.68;73.94;97422.60;105024;1252;97945;-77
2024/02/19 16:35:58;;;;;;;33.40;19.90;;;;;;;6.68;73.84;97421.15;104952;1257;97054;-76
2024/02/19 16:38:27;;;;;;;53.90;33.00;;;;;;;6.68;73.90;97420.28;105066;1256;102490;-76
2024/02/19 16:40:56;;;;;;;29.40;17.70;;;;;;;6.68;73.90;97427.59;104988;1257;102148;-76
2024/02/19 16:43:25;;;;;;;26.40;15.80;;;;;;;6.68;74.05;97428.05;105014;1266;100684;-76
2024/02/19 16:45:53;;;;;;;31.00;18.40;;;;;;;6.67;73.95;97429.30;105174;1257;96789;-76
2024/02/19 16:48:20;;;;;;;9.70;6.70;;;;;;;6.66;74.20;97434.74;105055;1254;96969;-76
2024/02/19 16:50:49;;;;;;;11.50;6.40;;;;;;;6.65;73.87;97435.55;105020;1257;102886;-77
2024/02/19 16:53:17;;;;;;;17.80;9.80;;;;;;;6.68;73.83;97441.17;105103;1254;100318;-76
2024/02/19 16:55:45;;;;;;;35.10;18.50;;;;;;;6.68;74.06;97438.28;105032;1267;100784;-76
2024/02/19 16:58:15;;;;;;;29.80;15.90;;;;;;;6.67;74.10;97435.21;105173;1258;96551;-77
2024/02/19 17:00:46;;;;;;;40.00;20.80;;;;;;;6.66;74.13;97430.65;105104;1256;97848;-76
2024/02/19 17:03:15;;;;;;;37.40;18.60;;;;;;;6.65;74.06;97425.89;105183;1258;102607;-77
2024/02/19 17:05:43;;;;;;;23.40;12.40;;;;;;;6.64;74.23;97429.19;105158;1267;101760;-77
2024/02/19 17:08:11;;;;;;;34.20;16.10;;;;;;;6.63;74.13;97431.92;105010;1266;99191;-77
2024/02/19 17:10:39;;;;;;;33.60;15.30;;;;;;;6.63;74.09;97430.27;105199;1259;97730;-77
2024/02/19 17:13:07;;;;;;;21.90;11.20;;;;;;;6.64;74.08;97427.96;105188;1257;97877;-76
2024/02/19 17:15:35;;;;;;;25.60;13.50;;;;;;;6.64;74.31;97426.30;105291;1263;102830;-76
2024/02/19 17:18:04;;;;;;;27.10;13.80;;;;;;;6.62;74.36;97424.43;105235;1259;100331;-76
2024/02/19 17:20:32;;;;;;;30.10;17.50;;;;;;;6.59;74.48;97425.83;105209;1258;100747;-76
2024/02/19 17:23:03;;;;;;;22.50;13.10;;;;;;;6.57;74.52;97428.02;105114;1257;97357;-77
2024/02/19 17:25:32;;;;;;;23.90;11.90;;;;;;;6.54;74.59;97425.04;105043;1257;97011;-76
2024/02/19 17:28:00;;;;;;;25.30;13.20;;;;;;;6.51;74.70;97431.95;105038;1258;102762;-76
2024/02/19 17:30:28;;;;;;;29.80;14.10;;;;;;;6.49;74.77;97432.17;105147;1257;102088;-76
2024/02/19 17:32:56;;;;;;;30.30;17.80;;;;;;;6.46;75.18;97437.40;105081;1264;107205;-77
2024/02/19 17:35:25;;;;;;;35.70;20.70;;;;;;;6.41;75.30;97437.45;105051;1267;96648;-77
2024/02/19 17:37:53;;;;;;;30.10;18.50;;;;;;;6.39;75.36;97435.41;105017;1257;98404;-76
2024/02/19 17:40:20;;;;;;;17.80;11.60;;;;;;;6.37;75.53;97437.08;105248;1256;102929;-76
2024/02/19 17:42:48;;;;;;;105.60;47.70;;;;;;;6.35;75.25;97433.87;104979;1257;110654;-77
2024/02/19 17:45:16;;;;;;;71.30;34.90;;;;;;;6.36;75.49;97438.96;105058;1257;98966;-76
2024/02/19 17:47:43;;;;;;;47.90;25.60;;;;;;;6.37;75.51;97446.19;105005;1257;96536;-76
2024/02/19 17:50:11;;;;;;;27.20;15.30;;;;;;;6.38;75.83;97451.23;105002;1254;97442;-76
2024/02/19 17:52:39;;;;;;;20.00;12.30;;;;;;;6.34;76.08;97455.63;104946;1254;102759;-77
2024/02/19 17:55:09;;;;;;;18.40;9.80;;;;;;;6.31;75.99;97458.41;105053;1257;101886;-76
2024/02/19 17:57:37;;;;;;;14.70;8.00;;;;;;;6.27;76.23;97464.35;104974;1254;100469;-77
2024/02/19 18:00:05;;;;;;;18.60;11.20;;;;;;;6.25;76.18;97468.93;105117;1257;96649;-77
2024/02/19 18:02:33;;;;;;;21.50;13.30;;;;;;;6.22;76.50;97468.52;105019;1254;97877;-77
2024/02/19 18:05:02;;;;;;;13.50;7.50;;;;;;;6.19;76.59;97474.52;105176;1254;102732;-77
2024/02/19 18:07:30;;;;;;;12.40;7.30;;;;;;;6.17;76.71;97479.19;105109;1258;102166;-77
2024/02/19 18:09:58;;;;;;;13.70;7.80;;;;;;;6.17;76.82;97488.42;105007;1256;98993;-77
2024/02/19 18:12:26;;;;;;;16.60;8.10;;;;;;;6.18;77.02;97491.07;105157;1264;96634;-78
2024/02/19 18:14:55;;;;;;;23.30;10.60;;;;;;;6.15;77.09;97489.94;105089;1256;97087;-77
2024/02/19 18:17:23;;;;;;;17.20;9.90;;;;;;;6.14;77.33;97490.58;105105;1257;103307;-77
2024/02/19 18:19:52;;;;;;;14.80;7.20;;;;;;;6.12;77.25;97488.25;105069;1257;102260;-78
2024/02/19 18:22:20;;;;;;;14.10;8.50;;;;;;;6.09;77.01;97491.11;105069;1254;98479;-77
2024/02/19 18:24:48;;;;;;;15.40;8.30;;;;;;;6.06;77.01;97490.14;105039;1257;96716;-77
2024/02/19 18:27:16;;;;;;;10.00;5.50;;;;;;;6.00;76.93;97489.02;105194;1257;97577;-78
2024/02/19 18:29:43;;;;;;;7.70;4.70;;;;;;;5.98;76.79;97488.91;105050;1256;103030;-80
2024/02/19 18:32:12;;;;;;;8.40;4.30;;;;;;;5.97;76.68;97485.27;104981;1257;102603;-80
2024/02/19 18:34:39;;;;;;;5.80;3.40;;;;;;;5.98;76.51;97481.70;105107;1253;100791;-82
2024/02/19 18:37:07;;;;;;;6.90;3.90;;;;;;;5.99;76.35;97480.93;105234;1254;96539;-79
2024/02/19 18:39:35;;;;;;;5.70;3.90;;;;;;;5.99;76.41;97481.42;105246;1256;97080;-79
2024/02/19 18:42:04;;;;;;;5.40;4.00;;;;;;;6.00;76.38;97483.13;105199;1256;101155;-80
2024/02/19 18:44:32;;;;;;;5.10;3.40;;;;;;;5.99;76.32;97484.85;105306;1257;100479;-80
2024/02/19 18:47:00;;;;;;;6.10;3.60;;;;;;;5.99;76.18;97486.66;105132;1256;98493;-80
2024/02/19 18:49:31;;;;;;;6.80;4.00;;;;;;;5.99;76.10;97490.91;105135;1266;96527;-81
2024/02/19 18:52:01;;;;;;;10.80;5.00;;;;;;;5.99;76.19;97490.20;105225;1267;97001;-78
2024/02/19 18:54:30;;;;;;;10.10;5.70;;;;;;;5.99;76.35;97496.39;105223;1258;103055;-78
2024/02/19 18:57:00;;;;;;;11.10;6.70;;;;;;;5.97;76.58;97496.65;105508;1256;102150;-80
2024/02/19 18:59:30;;;;;;;12.20;6.70;;;;;;;5.96;76.84;97503.99;105248;1257;98920;-79
2024/02/19 19:02:00;;;;;;;16.80;8.00;;;;;;;5.94;77.02;97500.25;104993;1267;96624;-77
2024/02/19 19:04:28;;;;;;;11.60;6.20;;;;;;;5.91;77.11;97501.19;105030;1260;98220;-80
2024/02/19 19:06:56;;;;;;;7.40;5.10;;;;;;;5.88;77.15;97496.16;104929;1254;102990;-79
2024/02/19 19:09:24;;;;;;;7.90;4.40;;;;;;;5.87;77.13;97495.36;105073;1258;108935;-78
2024/02/19 19:11:51;;;;;;;7.10;4.20;;;;;;;5.85;77.15;97498.13;104975;1256;100369;-75
2024/02/19 19:14:19;;;;;;;9.70;6.10;;;;;;;5.79;77.12;97503.60;104959;1257;97567;-79
2024/02/19 19:16:47;;;;;;;11.30;6.00;;;;;;;5.76;77.05;97503.41;105000;1254;98484;-78
2024/02/19 19:19:15;;;;;;;10.50;5.50;;;;;;;5.74;77.06;97505.07;105028;1257;100892;-79
2024/02/19 19:21:42;;;;;;;9.60;5.30;;;;;;;5.74;77.04;97504.90;105119;1275;100071;-77
2024/02/19 19:24:10;;;;;;;9.50;4.90;;;;;;;5.74;76.91;97504.77;105003;1267;100808;-78
2024/02/19 19:26:38;;;;;;;6.30;3.70;;;;;;;5.74;76.65;97503.16;105198;1256;96765;-80